Time;durP1;ratioP1;P1;durP2;ratioP2;P2;SDS_P1;SDS_P2;PMS_P1;PMS_P2;Temp;Humidity;BMP_temperature;BMP_pressure;BME280_temperature;BME280_humidity;BME280_pressure;Samples;Min_cycle;Max_cycle;Signal;HPM_P1;HPM_P2
2022/05/17 00:00:18;;;;;;;6.20;5.57;;;;;;;14.22;100.00;97335.75;4941610;28;20244;-57
2022/05/17 00:02:47;;;;;;;6.57;5.97;;;;;;;14.27;100.00;97332.50;4967615;28;20224;-56
2022/05/17 00:05:15;;;;;;;6.37;5.53;;;;;;;14.28;100.00;97345.59;4948045;28;20318;-59
2022/05/17 00:07:44;;;;;;;5.77;5.20;;;;;;;14.29;100.00;97336.59;4970992;28;21114;-52
2022/05/17 00:10:12;;;;;;;5.40;5.00;;;;;;;14.37;100.00;97345.41;4971970;28;20206;-58
2022/05/17 00:12:41;;;;;;;6.03;5.23;;;;;;;14.41;100.00;97333.34;4963143;28;20235;-58
2022/05/17 00:15:09;;;;;;;5.90;5.43;;;;;;;14.41;100.00;97333.34;4939596;28;20257;-55
2022/05/17 00:17:38;;;;;;;5.90;5.50;;;;;;;14.43;100.00;97331.28;4967590;28;20942;-58
2022/05/17 00:20:09;;;;;;;6.17;5.17;;;;;;;14.38;100.00;97337.22;4948959;28;20320;-57
2022/05/17 00:22:37;;;;;;;5.60;5.20;;;;;;;14.48;100.00;97334.16;4954565;28;20337;-56
2022/05/17 00:25:06;;;;;;;6.03;5.53;;;;;;;14.50;100.00;97331.25;4968976;28;20230;-58
2022/05/17 00:27:35;;;;;;;5.83;5.27;;;;;;;14.52;100.00;97330.03;4966679;28;20283;-54
2022/05/17 00:30:03;;;;;;;5.77;5.27;;;;;;;14.57;100.00;97330.25;4936526;28;20231;-55
2022/05/17 00:32:32;;;;;;;5.47;5.07;;;;;;;14.54;100.00;97321.81;4968586;28;20230;-59
2022/05/17 00:35:00;;;;;;;7.13;5.33;;;;;;;14.58;100.00;97321.22;4947015;28;20229;-56
2022/05/17 00:37:29;;;;;;;7.00;5.73;;;;;;;14.65;100.00;97323.88;4966038;28;20242;-58
2022/05/17 00:39:57;;;;;;;5.70;5.23;;;;;;;14.70;100.00;97321.44;4968698;28;20339;-58
2022/05/17 00:42:26;;;;;;;5.03;4.63;;;;;;;14.75;100.00;97318.97;4967802;28;20284;-57
2022/05/17 00:44:54;;;;;;;5.87;5.30;;;;;;;14.65;100.00;97323.06;4968693;28;20548;-58
2022/05/17 00:47:25;;;;;;;6.50;5.73;;;;;;;14.67;100.00;97321.84;4935530;28;21193;-57
2022/05/17 00:49:57;;;;;;;5.67;5.17;;;;;;;14.61;100.00;97312.81;4951907;28;20998;-57
2022/05/17 00:52:29;;;;;;;6.37;4.87;;;;;;;14.60;100.00;97321.81;4928779;28;20736;-56
2022/05/17 00:55:00;;;;;;;8.03;6.80;;;;;;;14.56;100.00;97315.28;4968258;28;20234;-57
2022/05/17 00:57:31;;;;;;;5.57;5.07;;;;;;;14.56;100.00;97314.44;4968072;28;20209;-57
2022/05/17 01:00:03;;;;;;;6.00;5.50;;;;;;;14.48;100.00;97312.81;4965918;28;20316;-57
2022/05/17 01:02:32;;;;;;;9.30;5.17;;;;;;;14.43;100.00;97313.44;4931875;28;20548;-58
2022/05/17 01:05:01;;;;;;;6.23;5.57;;;;;;;14.57;100.00;97319.56;4965013;28;20328;-58
2022/05/17 01:07:38;;;;;;;5.90;5.50;;;;;;;14.53;100.00;97307.69;4934051;28;20597;-57
2022/05/17 01:10:07;;;;;;;6.53;5.20;;;;;;;14.53;100.00;97305.03;4967690;28;20651;-55
2022/05/17 01:12:35;;;;;;;6.23;5.17;;;;;;;14.53;100.00;97307.69;4967612;28;20423;-53
2022/05/17 01:15:05;;;;;;;5.70;5.30;;;;;;;14.53;100.00;97301.53;4967546;28;20226;-55
2022/05/17 01:17:35;;;;;;;6.90;5.10;;;;;;;14.55;100.00;97296.78;4931429;28;20217;-56
2022/05/17 01:20:08;;;;;;;6.27;5.77;;;;;;;14.47;100.00;97301.31;4965628;28;20254;-55
2022/05/17 01:22:38;;;;;;;5.97;5.37;;;;;;;14.47;100.00;97300.53;4937461;28;20241;-53
2022/05/17 01:25:07;;;;;;;6.83;6.10;;;;;;;14.46;100.00;97299.69;4967754;28;20229;-57
2022/05/17 01:27:38;;;;;;;6.23;5.67;;;;;;;14.38;100.00;97294.56;4965412;28;20218;-58
2022/05/17 01:30:07;;;;;;;6.67;5.47;;;;;;;14.45;100.00;97291.91;4971245;28;21159;-58
2022/05/17 01:32:35;;;;;;;8.77;6.50;;;;;;;14.44;100.00;97293.75;4928581;28;20291;-54
2022/05/17 01:35:04;;;;;;;6.10;5.60;;;;;;;14.41;100.00;97293.34;4967194;28;20233;-57
2022/05/17 01:37:32;;;;;;;7.13;6.43;;;;;;;14.39;100.00;97300.69;4963601;28;20650;-57
2022/05/17 01:40:02;;;;;;;6.93;5.80;;;;;;;14.44;100.00;97304.41;4941129;28;20252;-57
2022/05/17 01:42:30;;;;;;;7.60;6.53;;;;;;;14.41;100.00;97302.16;4966005;28;20822;-56
2022/05/17 01:44:58;;;;;;;7.40;6.73;;;;;;;14.39;100.00;97312.19;4963591;28;20595;-56
2022/05/17 01:47:27;;;;;;;8.97;6.67;;;;;;;14.38;100.00;97304.41;4919698;28;20399;-59
2022/05/17 01:49:55;;;;;;;7.17;6.47;;;;;;;14.31;100.00;97315.88;4967773;28;20201;-58
2022/05/17 01:52:23;;;;;;;7.93;6.83;;;;;;;14.32;100.00;97303.38;4964094;28;20210;-58
2022/05/17 01:54:51;;;;;;;7.23;6.37;;;;;;;14.26;100.00;97318.34;4935445;28;20464;-56
2022/05/17 01:57:21;;;;;;;6.77;6.27;;;;;;;14.28;100.00;97310.16;4965761;28;20267;-56
2022/05/17 01:59:49;;;;;;;7.20;6.70;;;;;;;14.30;100.00;97314.25;4965078;28;20440;-54
2022/05/17 02:02:18;;;;;;;7.37;6.70;;;;;;;14.33;100.00;97316.50;4959098;28;20634;-58
2022/05/17 02:04:46;;;;;;;7.17;6.57;;;;;;;14.36;100.00;97312.59;4943944;28;20240;-56
2022/05/17 02:07:15;;;;;;;8.20;7.43;;;;;;;14.29;100.00;97320.59;4962558;28;20585;-57
2022/05/17 02:09:43;;;;;;;8.50;7.80;;;;;;;14.34;100.00;97317.31;4934001;28;20581;-58
2022/05/17 02:12:12;;;;;;;7.50;6.83;;;;;;;14.39;100.00;97319.34;4967056;28;20309;-52
2022/05/17 02:14:41;;;;;;;7.63;6.93;;;;;;;14.37;100.00;97316.09;4962153;28;20401;-57
2022/05/17 02:17:10;;;;;;;7.30;6.80;;;;;;;14.35;100.00;97318.97;4964956;28;20295;-57
2022/05/17 02:19:38;;;;;;;8.27;7.53;;;;;;;14.36;100.00;97309.94;4923089;28;20318;-53
2022/05/17 02:22:06;;;;;;;8.07;7.37;;;;;;;14.28;100.00;97318.97;4967867;28;20289;-56
2022/05/17 02:24:35;;;;;;;9.20;8.40;;;;;;;14.27;100.00;97314.66;4962958;28;20863;-52
2022/05/17 02:27:03;;;;;;;9.53;7.90;;;;;;;14.30;100.00;97318.75;4940982;28;20835;-53
2022/05/17 02:29:31;;;;;;;8.87;8.07;;;;;;;14.27;100.00;97327.16;4962765;28;20202;-55
2022/05/17 02:32:01;;;;;;;8.73;8.13;;;;;;;14.26;100.00;97318.34;4965719;28;20432;-57
2022/05/17 02:34:31;;;;;;;8.70;8.10;;;;;;;14.28;100.00;97321.63;4926559;28;20303;-58
2022/05/17 02:37:00;;;;;;;8.37;7.77;;;;;;;14.25;100.00;97324.69;4967491;28;20215;-56
2022/05/17 02:39:28;;;;;;;8.87;8.07;;;;;;;14.24;100.00;97333.72;4964434;28;20305;-57
2022/05/17 02:41:56;;;;;;;9.33;8.57;;;;;;;14.25;100.00;97324.69;4937166;28;20278;-57
2022/05/17 02:44:24;;;;;;;10.30;9.30;;;;;;;14.27;100.00;97327.97;4961886;28;20900;-56
2022/05/17 02:46:53;;;;;;;10.07;9.17;;;;;;;14.25;100.00;97324.69;4965375;28;20312;-56
2022/05/17 02:49:22;;;;;;;10.53;9.63;;;;;;;14.24;100.00;97328.38;4949189;28;20205;-60
2022/05/17 02:51:51;;;;;;;10.37;9.47;;;;;;;14.33;100.00;97332.47;4955719;28;20462;-55
2022/05/17 02:54:19;;;;;;;11.20;9.47;;;;;;;14.33;100.00;97329.81;4962739;28;20278;-58
2022/05/17 02:56:47;;;;;;;10.50;9.40;;;;;;;14.29;100.00;97339.25;4919098;28;20213;-59
2022/05/17 02:59:17;;;;;;;10.13;9.43;;;;;;;14.32;100.00;97330.84;4968323;28;20638;-59
2022/05/17 03:01:46;;;;;;;9.60;8.70;;;;;;;14.30;100.00;97337.41;4963757;28;20684;-58
2022/05/17 03:04:14;;;;;;;9.73;8.93;;;;;;;14.32;100.00;97330.84;4967836;28;20764;-55
2022/05/17 03:06:45;;;;;;;9.80;9.00;;;;;;;14.31;100.00;97339.06;4926596;28;20232;-58
2022/05/17 03:09:13;;;;;;;10.60;9.50;;;;;;;14.31;100.00;97339.06;4908171;28;20451;-60
2022/05/17 03:11:43;;;;;;;9.50;8.60;;;;;;;14.31;100.00;97339.06;4964574;28;20622;-58
2022/05/17 03:14:12;;;;;;;8.80;8.20;;;;;;;14.34;100.00;97341.31;4905453;28;20804;-57
2022/05/17 03:16:41;;;;;;;9.77;8.97;;;;;;;14.30;100.00;97340.09;4937384;28;20213;-56
2022/05/17 03:19:10;;;;;;;9.80;9.00;;;;;;;14.32;100.00;97344.16;4961112;28;20947;-56
2022/05/17 03:21:38;;;;;;;10.13;9.10;;;;;;;14.27;100.00;97346.63;4935205;28;20243;-55
2022/05/17 03:24:08;;;;;;;10.85;9.85;;;;;;;14.26;100.00;97350.31;4968276;28;20454;-57
2022/05/17 03:26:57;;;;;;;9.20;8.40;;;;;;;14.26;100.00;97360.19;4955066;28;20205;-59
2022/05/17 03:29:26;;;;;;;9.97;9.10;;;;;;;14.23;100.00;97352.59;4958220;28;20209;-60
2022/05/17 03:31:54;;;;;;;9.70;8.90;;;;;;;14.28;100.00;97358.94;4965462;28;20686;-58
2022/05/17 03:34:22;;;;;;;8.53;7.83;;;;;;;14.28;100.00;97360.78;4962938;28;20316;-60
2022/05/17 03:36:51;;;;;;;9.63;8.87;;;;;;;14.23;100.00;97363.25;4960774;28;20210;-60
2022/05/17 03:39:20;;;;;;;12.20;8.90;;;;;;;14.18;100.00;97361.97;4950511;28;20232;-61
2022/05/17 03:41:49;;;;;;;9.20;8.40;;;;;;;14.21;100.00;97357.31;4965456;28;20680;-60
2022/05/17 03:44:17;;;;;;;10.10;9.13;;;;;;;14.23;100.00;97358.72;4943097;28;20233;-61
2022/05/17 03:46:46;;;;;;;9.03;8.27;;;;;;;14.27;100.00;97365.28;4973696;28;20316;-59
2022/05/17 03:49:14;;;;;;;10.07;9.20;;;;;;;14.29;100.00;97363.22;4969357;28;20193;-58
2022/05/17 03:51:42;;;;;;;11.10;9.33;;;;;;;14.27;100.00;97365.28;4968759;28;20332;-57
2022/05/17 03:54:11;;;;;;;10.50;9.70;;;;;;;14.25;100.00;97363.88;4936825;28;20484;-57
2022/05/17 03:56:43;;;;;;;8.90;8.07;;;;;;;14.26;100.00;97368.97;4968526;28;20311;-59
2022/05/17 03:59:11;;;;;;;9.13;8.43;;;;;;;14.16;100.00;97374.69;4946003;28;20222;-57
2022/05/17 04:01:39;;;;;;;9.03;8.30;;;;;;;14.22;100.00;97361.59;4966051;28;20281;-57
2022/05/17 04:04:07;;;;;;;11.43;9.67;;;;;;;14.22;100.00;97364.28;4968177;28;20214;-59
2022/05/17 04:06:36;;;;;;;10.10;9.27;;;;;;;14.17;100.00;97365.69;4964847;28;20202;-57
2022/05/17 04:09:05;;;;;;;9.83;9.13;;;;;;;14.19;100.00;97370.81;4940722;28;20217;-60
2022/05/17 04:11:34;;;;;;;9.20;8.60;;;;;;;14.21;100.00;97370.63;4967359;28;20303;-58
2022/05/17 04:14:04;;;;;;;10.13;9.13;;;;;;;14.22;100.00;97373.06;4945216;28;20252;-60
2022/05/17 04:16:33;;;;;;;8.97;8.27;;;;;;;14.18;100.00;97388.63;4965911;28;20207;-54
2022/05/17 04:19:01;;;;;;;9.83;9.13;;;;;;;14.25;100.00;97371.84;4971484;28;20300;-56
2022/05/17 04:21:30;;;;;;;9.23;8.53;;;;;;;14.31;100.00;97376.38;4964409;28;20229;-58
2022/05/17 04:23:59;;;;;;;10.07;9.17;;;;;;;14.22;100.00;97377.59;4966865;28;20226;-60
2022/05/17 04:26:27;;;;;;;8.90;8.13;;;;;;;14.27;100.00;97386.59;4936357;28;20268;-57
2022/05/17 04:28:55;;;;;;;9.00;8.37;;;;;;;14.35;100.00;97388.28;4944801;28;20238;-57
2022/05/17 04:31:25;;;;;;;10.43;9.63;;;;;;;14.41;100.00;97394.63;4970155;28;20280;-57
2022/05/17 04:33:54;;;;;;;10.60;9.50;;;;;;;14.33;100.00;97395.66;4968079;28;20225;-55
2022/05/17 04:36:22;;;;;;;9.53;8.63;;;;;;;14.36;100.00;97395.25;4966357;28;20607;-59
2022/05/17 04:38:50;;;;;;;11.27;10.27;;;;;;;14.41;100.00;97398.09;4967525;28;20198;-57
2022/05/17 04:41:18;;;;;;;11.00;10.00;;;;;;;14.42;100.00;97398.94;4941092;28;20299;-56
2022/05/17 04:43:51;;;;;;;10.00;9.23;;;;;;;14.47;100.00;97409.81;4944701;28;20241;-61
2022/05/17 04:46:19;;;;;;;9.93;9.00;;;;;;;14.52;100.00;97406.53;4968661;28;20305;-58
2022/05/17 04:48:48;;;;;;;9.73;8.83;;;;;;;14.56;100.00;97421.09;4964599;28;20294;-60
2022/05/17 04:51:17;;;;;;;9.67;8.90;;;;;;;14.56;100.00;97411.25;4971401;28;20228;-59
2022/05/17 04:53:45;;;;;;;10.23;9.23;;;;;;;14.52;100.00;97418.03;4968995;28;20296;-56
2022/05/17 04:56:14;;;;;;;9.40;8.60;;;;;;;14.52;100.00;97422.50;4935401;28;20217;-57
2022/05/17 04:58:43;;;;;;;10.50;9.50;;;;;;;14.64;100.00;97417.41;4949341;28;20225;-57
2022/05/17 05:01:11;;;;;;;9.47;8.67;;;;;;;14.65;100.00;97419.88;4948097;28;20320;-58
2022/05/17 05:03:39;;;;;;;10.87;9.77;;;;;;;14.65;100.00;97419.88;4969753;28;20248;-57
2022/05/17 05:06:09;;;;;;;10.00;9.00;;;;;;;14.60;100.00;97419.69;4967167;28;20399;-56
2022/05/17 05:08:37;;;;;;;9.07;8.27;;;;;;;14.61;100.00;97421.31;4966866;28;20301;-57
2022/05/17 05:11:06;;;;;;;10.83;9.83;;;;;;;14.62;100.00;97426.44;4968487;28;20309;-58
2022/05/17 05:13:34;;;;;;;9.87;8.97;;;;;;;14.57;100.00;97433.38;4940056;28;20904;-57
2022/05/17 05:16:02;;;;;;;10.67;9.63;;;;;;;14.59;100.00;97426.84;4949317;28;20213;-58
2022/05/17 05:18:31;;;;;;;9.70;8.90;;;;;;;14.68;100.00;97432.81;4967794;28;20205;-59
2022/05/17 05:21:05;;;;;;;10.17;9.20;;;;;;;14.60;100.00;97435.69;4967613;28;20234;-59
2022/05/17 05:23:34;;;;;;;9.87;9.10;;;;;;;14.67;100.00;97433.81;4964665;28;20297;-59
2022/05/17 05:26:02;;;;;;;10.93;9.23;;;;;;;14.71;100.00;97434.25;4966683;28;20242;-57
2022/05/17 05:28:31;;;;;;;9.90;8.93;;;;;;;14.82;100.00;97441.66;4931063;28;20372;-57
2022/05/17 05:30:59;;;;;;;11.10;10.20;;;;;;;14.79;100.00;97438.56;4948862;28;20209;-55
2022/05/17 05:33:29;;;;;;;10.87;9.77;;;;;;;14.69;100.00;97430.94;4966783;28;20255;-53
2022/05/17 05:35:57;;;;;;;10.87;9.83;;;;;;;14.75;100.00;97441.66;4967792;28;20675;-60
2022/05/17 05:38:25;;;;;;;11.13;10.07;;;;;;;14.88;100.00;97446.19;4967454;28;20269;-58
2022/05/17 05:40:56;;;;;;;11.20;10.17;;;;;;;15.31;100.00;97434.22;4968753;28;20285;-57
2022/05/17 05:43:25;;;;;;;11.17;10.17;;;;;;;15.63;100.00;97437.03;4933348;28;20232;-58
2022/05/17 05:45:54;;;;;;;10.47;9.40;;;;;;;15.73;100.00;97436.59;4971902;28;20237;-55
2022/05/17 05:48:22;;;;;;;10.70;9.70;;;;;;;15.76;100.00;97440.69;4944263;28;20233;-57
2022/05/17 05:50:52;;;;;;;9.90;9.03;;;;;;;15.77;100.00;97443.13;4968875;28;20569;-59
2022/05/17 05:53:21;;;;;;;10.07;8.67;;;;;;;15.60;100.00;97448.13;4965861;28;20308;-57
2022/05/17 05:55:51;;;;;;;11.07;8.43;;;;;;;15.45;100.00;97456.38;4967818;28;20716;-55
2022/05/17 05:58:20;;;;;;;9.77;8.67;;;;;;;15.60;100.00;97464.16;4929900;28;20621;-56
2022/05/17 06:00:49;;;;;;;7.83;7.13;;;;;;;15.90;100.00;97458.34;4967804;28;20636;-56
2022/05/17 06:03:17;;;;;;;8.33;7.73;;;;;;;16.05;100.00;97454.56;4948537;28;20367;-58
2022/05/17 06:05:45;;;;;;;7.80;7.20;;;;;;;16.16;100.00;97453.09;4966472;28;20347;-59
2022/05/17 06:08:14;;;;;;;7.47;6.77;;;;;;;16.19;100.00;97445.47;4969439;28;20237;-57
2022/05/17 06:10:42;;;;;;;7.30;6.70;;;;;;;16.21;100.00;97445.25;4971032;28;20506;-59
2022/05/17 06:13:13;;;;;;;7.37;6.87;;;;;;;16.10;100.00;97459.28;4934800;28;20241;-56
2022/05/17 06:15:43;;;;;;;9.03;8.20;;;;;;;15.89;100.00;97454.03;4967467;28;20252;-56
2022/05/17 06:18:12;;;;;;;7.77;6.97;;;;;;;15.76;100.00;97451.38;4947807;28;20697;-56
2022/05/17 06:20:41;;;;;;;7.80;7.10;;;;;;;16.03;100.00;97464.66;4966604;28;20894;-58
2022/05/17 06:23:10;;;;;;;7.97;7.27;;;;;;;16.07;100.00;97460.53;4962798;28;20230;-58
2022/05/17 06:25:38;;;;;;;7.20;6.70;;;;;;;16.58;100.00;97458.81;4964153;28;20518;-53
2022/05/17 06:28:09;;;;;;;7.63;7.03;;;;;;;16.96;100.00;97453.59;4969605;28;20305;-54
2022/05/17 06:30:37;;;;;;;7.13;6.53;;;;;;;17.18;100.00;97465.59;4948278;28;20532;-57
2022/05/17 06:33:09;;;;;;;7.83;7.20;;;;;;;16.98;100.00;97464.94;4967123;28;20205;-60
2022/05/17 06:35:38;;;;;;;7.80;7.00;;;;;;;16.88;100.00;97474.25;4948347;28;20470;-58
2022/05/17 06:38:07;;;;;;;6.97;6.37;;;;;;;16.59;100.00;97459.63;4968838;28;20300;-57
2022/05/17 06:40:36;;;;;;;7.60;6.70;;;;;;;16.93;100.00;97458.34;4964175;28;20490;-58
2022/05/17 06:43:05;;;;;;;6.70;6.10;;;;;;;17.26;100.00;97458.31;4967958;28;20597;-58
2022/05/17 06:45:33;;;;;;;6.53;6.13;;;;;;;17.38;100.00;97463.78;4932164;28;20240;-54
2022/05/17 06:48:03;;;;;;;7.70;6.43;;;;;;;17.35;100.00;97463.19;4971290;28;20333;-54
2022/05/17 06:50:33;;;;;;;6.53;6.03;;;;;;;17.20;100.00;97470.72;4943981;28;20304;-56
2022/05/17 06:53:03;;;;;;;6.90;6.30;;;;;;;17.14;100.00;97468.91;4968907;28;20202;-58
2022/05/17 06:55:32;;;;;;;7.27;6.50;;;;;;;17.42;100.00;97471.13;4964801;28;20253;-57
2022/05/17 06:58:00;;;;;;;6.87;6.27;;;;;;;17.94;100.00;97476.13;4966028;28;20206;-58
2022/05/17 07:00:28;;;;;;;7.93;7.20;;;;;;;17.76;100.00;97476.16;4930241;28;20382;-57
2022/05/17 07:02:56;;;;;;;6.83;6.23;;;;;;;17.73;100.00;97482.78;4972188;28;20229;-57
2022/05/17 07:05:25;;;;;;;7.17;6.70;;;;;;;17.94;100.00;97472.66;4942047;28;20239;-58
2022/05/17 07:07:55;;;;;;;8.37;6.90;;;;;;;18.11;100.00;97480.09;4967237;28;20590;-56
2022/05/17 07:13:08;;;;;;;6.57;6.07;;;;;;;18.26;100.00;97479.72;4967333;28;20201;-58
2022/05/17 07:15:37;;;;;;;7.23;6.73;;;;;;;18.23;100.00;97479.13;4932045;28;20273;-58
2022/05/17 07:18:06;;;;;;;7.70;7.00;;;;;;;18.32;100.00;97479.63;4966312;28;20309;-59
2022/05/17 07:20:35;;;;;;;6.77;6.07;;;;;;;18.62;100.00;97480.66;4941429;28;20337;-58
2022/05/17 07:23:05;;;;;;;7.30;6.57;;;;;;;18.90;100.00;97479.22;4969623;28;20316;-54
2022/05/17 07:25:33;;;;;;;7.03;6.43;;;;;;;18.85;100.00;97479.91;4962427;28;20229;-58
2022/05/17 07:28:02;;;;;;;6.90;6.40;;;;;;;19.02;100.00;97482.78;4965474;28;20209;-57
2022/05/17 07:30:30;;;;;;;8.40;7.70;;;;;;;18.70;100.00;97482.22;4927082;28;20888;-58
2022/05/17 07:32:58;;;;;;;6.47;5.83;;;;;;;18.37;100.00;97493.19;4972721;28;20205;-58
2022/05/17 07:35:26;;;;;;;7.60;6.90;;;;;;;17.88;100.00;97495.81;4961411;28;20512;-53
2022/05/17 07:37:55;;;;;;;6.50;5.97;;;;;;;17.60;100.00;97491.75;4948187;28;20508;-60
2022/05/17 07:40:25;;;;;;;7.20;6.50;;;;;;;17.31;100.00;97490.59;4964709;28;20205;-56
2022/05/17 07:42:54;;;;;;;7.73;7.03;;;;;;;17.06;100.00;97492.25;4971257;28;20225;-58
2022/05/17 07:45:23;;;;;;;8.30;6.33;;;;;;;16.79;100.00;97495.09;4933823;28;20225;-57
2022/05/17 07:47:51;;;;;;;7.20;6.50;;;;;;;17.24;100.00;97490.69;4972841;28;20623;-58
2022/05/17 07:50:20;;;;;;;6.50;6.00;;;;;;;17.82;100.00;97491.34;4955742;28;20689;-56
2022/05/17 07:52:48;;;;;;;6.87;6.00;;;;;;;18.48;100.00;97491.59;4939682;28;20290;-58
2022/05/17 07:55:16;;;;;;;6.80;6.20;;;;;;;19.01;100.00;97489.19;4967891;28;20507;-54
2022/05/17 07:57:47;;;;;;;10.93;9.83;;;;;;;19.29;100.00;97487.72;4966989;28;20399;-59
2022/05/17 08:00:16;;;;;;;6.93;6.40;;;;;;;18.98;100.00;97486.16;4967627;28;20289;-57
2022/05/17 08:02:44;;;;;;;8.77;7.90;;;;;;;18.43;100.00;97490.63;4935478;28;20224;-55
2022/05/17 08:05:12;;;;;;;9.27;6.97;;;;;;;18.23;100.00;97487.16;4969001;28;20240;-58
2022/05/17 08:07:41;;;;;;;6.60;6.00;;;;;;;18.47;100.00;97494.50;4927884;28;21382;-60
2022/05/17 08:10:09;;;;;;;7.70;7.00;;;;;;;18.57;100.00;97488.59;4966884;28;20344;-56
2022/05/17 08:12:37;;;;;;;7.63;6.77;;;;;;;18.41;100.00;97493.56;4963327;28;20666;-60
2022/05/17 08:15:09;;;;;;;8.17;6.07;;;;;;;18.01;100.00;97486.03;4965664;28;20628;-60
2022/05/17 08:17:38;;;;;;;5.80;5.40;;;;;;;17.82;100.00;97491.34;4929696;28;20356;-59
2022/05/17 08:20:09;;;;;;;5.90;5.13;;;;;;;17.98;100.00;97492.59;4971673;28;20551;-60
2022/05/17 08:22:39;;;;;;;5.40;4.90;;;;;;;18.27;100.00;97490.22;4935549;28;20434;-59
2022/05/17 08:27:54;;;;;;;6.20;4.70;;;;;;;18.69;100.00;97491.31;4951531;28;20202;-59
2022/05/17 08:30:25;;;;;;;5.17;4.20;;;;;;;19.05;100.00;97489.56;4965474;28;20546;-55
2022/05/17 08:35:42;;;;;;;4.57;4.20;;;;;;;19.31;100.00;97490.97;4973797;28;20310;-57
2022/05/17 08:38:12;;;;;;;4.80;4.50;;;;;;;19.34;100.00;97487.03;4959144;28;20302;-58
2022/05/17 08:40:51;;;;;;;5.33;4.80;;;;;;;19.80;100.00;97487.22;4954895;28;20629;-60
2022/05/17 08:43:25;;;;;;;4.70;4.30;;;;;;;19.99;100.00;97493.28;4969977;28;20226;-58
2022/05/17 08:46:13;;;;;;;4.70;4.10;;;;;;;19.74;100.00;97489.00;4970269;28;20289;-60
2022/05/17 08:48:48;;;;;;;4.70;4.33;;;;;;;19.42;100.00;97492.03;4935090;28;20535;-60
2022/05/17 08:51:19;;;;;;;4.70;4.30;;;;;;;18.93;100.00;97497.56;4970934;28;20735;-56
2022/05/17 08:53:47;;;;;;;5.23;4.73;;;;;;;19.15;100.00;97494.38;4964705;28;20447;-58
2022/05/17 08:56:16;;;;;;;4.77;4.47;;;;;;;19.32;100.00;97495.31;4944418;28;21147;-56
2022/05/17 08:58:47;;;;;;;4.70;4.30;;;;;;;19.63;100.00;97498.69;4967103;28;20742;-56
2022/05/17 09:01:21;;;;;;;5.73;4.83;;;;;;;19.21;100.00;97496.94;4969639;28;20300;-54
2022/05/17 09:04:19;;;;;;;6.43;5.23;;;;;;;19.45;100.00;97498.81;4937447;28;20333;-58
2022/05/17 09:06:53;;;;;;;6.27;5.67;;;;;;;20.08;100.00;97494.56;4973785;28;20641;-59
2022/05/17 09:09:25;;;;;;;7.27;4.70;;;;;;;20.32;100.00;97494.47;4939187;28;20264;-58
2022/05/17 09:11:57;;;;;;;5.13;4.60;;;;;;;20.60;100.00;97500.94;4968130;28;20336;-60
2022/05/17 09:14:27;;;;;;;5.03;4.63;;;;;;;20.33;100.00;97495.31;4968385;28;20222;-58
2022/05/17 09:17:00;;;;;;;5.07;4.63;;;;;;;20.61;100.00;97489.09;4971358;28;20211;-58
2022/05/17 09:19:29;;;;;;;4.43;4.13;;;;;;;20.73;100.00;97497.13;4930963;28;21358;-58
2022/05/17 09:21:59;;;;;;;5.13;4.73;;;;;;;21.06;100.00;97489.34;4974508;28;20213;-57
2022/05/17 09:24:32;;;;;;;5.10;3.90;;;;;;;21.52;100.00;97483.84;4929587;28;20237;-56
2022/05/17 09:27:05;;;;;;;4.93;4.50;;;;;;;21.38;100.00;97499.56;4967071;28;20770;-60
2022/05/17 09:29:37;;;;;;;4.83;4.43;;;;;;;21.30;100.00;97489.19;4968277;28;20431;-60
2022/05/17 09:32:08;;;;;;;7.23;5.17;;;;;;;20.91;100.00;97487.22;4969677;28;20420;-57
2022/05/17 09:34:39;;;;;;;7.20;4.63;;;;;;;20.95;100.00;97497.25;4964656;28;20217;-57
2022/05/17 09:37:10;;;;;;;5.30;4.90;;;;;;;20.85;100.00;97491.72;4935910;28;20240;-59
2022/05/17 09:39:38;;;;;;;4.70;4.23;;;;;;;21.01;100.00;97490.06;4929701;28;21071;-56
2022/05/17 09:42:09;;;;;;;4.03;3.73;;;;;;;21.01;100.00;97503.53;4973682;28;20293;-60
2022/05/17 09:44:43;;;;;;;5.60;4.90;;;;;;;21.20;96.93;97489.84;4968553;28;20625;-61
2022/05/17 09:47:24;;;;;;;6.17;4.40;;;;;;;21.31;92.65;97502.41;4972252;28;20233;-60
2022/05/17 09:52:44;;;;;;;6.43;4.47;;;;;;;21.43;94.23;97483.44;4948611;28;21016;-57
2022/05/17 09:55:22;;;;;;;5.30;4.80;;;;;;;21.35;93.84;97484.69;4946774;28;20997;-56
2022/05/17 09:57:58;;;;;;;4.40;4.00;;;;;;;21.74;91.49;97478.53;4969913;28;20245;-59
2022/05/17 10:00:30;;;;;;;7.57;4.80;;;;;;;21.86;86.83;97488.38;4966889;28;20264;-55
2022/05/17 10:03:02;;;;;;;5.47;4.97;;;;;;;22.07;86.92;97482.19;4969017;28;20237;-60
2022/05/17 10:05:44;;;;;;;3.93;3.73;;;;;;;21.63;82.39;97482.94;4965952;28;20776;-59
2022/05/17 10:08:30;;;;;;;5.40;4.90;;;;;;;21.76;89.19;97479.09;4937242;28;20214;-57
2022/05/17 10:11:20;;;;;;;3.80;3.60;;;;;;;21.24;88.32;97488.28;4949599;28;20273;-59
2022/05/17 10:13:58;;;;;;;4.97;4.57;;;;;;;21.05;95.35;97485.84;4968149;28;20233;-60
2022/05/17 10:16:28;;;;;;;4.90;4.60;;;;;;;21.23;96.05;97497.44;4961335;28;20657;-57
2022/05/17 10:19:01;;;;;;;5.00;4.67;;;;;;;21.25;95.27;97485.34;4968599;28;20297;-60
2022/05/17 10:21:33;;;;;;;5.47;5.03;;;;;;;21.35;99.58;97487.38;4933227;28;21056;-60
2022/05/17 10:24:06;;;;;;;5.03;4.57;;;;;;;21.38;91.86;97486.88;4973009;28;20343;-59
2022/05/17 10:26:39;;;;;;;5.83;4.83;;;;;;;21.46;95.71;97482.16;4948020;28;20755;-61
2022/05/17 10:29:20;;;;;;;4.30;4.00;;;;;;;21.90;89.13;97490.34;4967887;28;20276;-57
2022/05/17 10:31:57;;;;;;;5.33;4.90;;;;;;;21.50;86.77;97480.59;4966507;28;20423;-60
2022/05/17 10:34:41;;;;;;;4.30;4.10;;;;;;;21.48;87.47;97474.63;4965235;28;20317;-60
2022/05/17 10:37:14;;;;;;;4.37;4.00;;;;;;;21.88;87.32;97473.59;4947116;28;20205;-59
2022/05/17 10:39:48;;;;;;;4.73;3.90;;;;;;;21.86;76.94;97481.13;4972223;28;20249;-57
2022/05/17 10:42:16;;;;;;;4.23;3.80;;;;;;;22.16;85.49;97476.34;4946094;28;20724;-58
2022/05/17 10:44:47;;;;;;;5.57;2.93;;;;;;;22.22;69.47;97478.84;4950451;28;20233;-60
2022/05/17 10:47:22;;;;;;;3.83;3.10;;;;;;;22.59;73.29;97471.97;4965576;28;20919;-61
2022/05/17 10:49:59;;;;;;;4.63;4.20;;;;;;;22.33;66.16;97473.56;4957283;28;20311;-58
2022/05/17 10:52:34;;;;;;;4.07;3.77;;;;;;;21.83;75.03;97479.72;4970371;28;20699;-60
2022/05/17 10:55:07;;;;;;;4.83;3.30;;;;;;;21.59;89.95;97475.56;4935329;28;20229;-57
2022/05/17 10:57:45;;;;;;;4.03;3.83;;;;;;;21.66;88.72;97474.38;4971609;28;20301;-57
2022/05/17 11:00:18;;;;;;;3.90;3.60;;;;;;;21.95;79.65;97474.22;4948287;28;20331;-60
2022/05/17 11:03:10;;;;;;;4.23;3.83;;;;;;;22.25;77.62;97466.72;4967841;28;20235;-58
2022/05/17 11:05:46;;;;;;;3.50;3.30;;;;;;;22.82;70.12;97453.81;4960209;28;20320;-58
2022/05/17 11:08:18;;;;;;;4.30;3.90;;;;;;;23.47;71.64;97455.66;4927741;28;20310;-61
2022/05/17 11:10:56;;;;;;;4.13;3.73;;;;;;;23.34;64.82;97455.06;4969400;28;20336;-60
2022/05/17 11:13:28;;;;;;;4.40;4.00;;;;;;;22.59;73.94;97457.66;4946006;28;20770;-61
2022/05/17 11:15:59;;;;;;;4.53;4.10;;;;;;;22.47;69.65;97464.00;4964503;28;20660;-57
2022/05/17 11:18:38;;;;;;;5.80;4.10;;;;;;;22.43;76.59;97467.47;4969753;28;20209;-61
2022/05/17 11:21:11;;;;;;;4.93;4.20;;;;;;;22.40;81.86;97461.50;4953995;28;20216;-60
2022/05/17 11:23:49;;;;;;;4.00;3.70;;;;;;;22.22;73.48;97464.53;4968082;28;20681;-60
2022/05/17 11:26:53;;;;;;;4.77;4.27;;;;;;;22.18;74.42;97460.72;4942126;28;20331;-56
2022/05/17 11:29:44;;;;;;;3.80;3.60;;;;;;;22.70;75.18;97448.59;4944411;28;20868;-59
2022/05/17 11:32:23;;;;;;;5.13;4.00;;;;;;;22.86;65.24;97452.22;4965768;28;20752;-61
2022/05/17 11:34:54;;;;;;;4.33;4.03;;;;;;;22.87;65.06;97445.75;4964308;28;20297;-57
2022/05/17 11:37:49;;;;;;;4.17;3.77;;;;;;;22.39;72.48;97446.38;4953532;28;20781;-59
2022/05/17 11:40:53;;;;;;;5.27;4.80;;;;;;;22.61;72.22;97453.63;4931448;28;21708;-59
2022/05/17 11:43:41;;;;;;;4.07;3.77;;;;;;;22.48;76.55;97460.25;4967113;28;20557;-59
2022/05/17 11:46:53;;;;;;;4.17;3.90;;;;;;;22.76;67.99;97455.66;4941610;28;20864;-59
2022/05/17 11:49:45;;;;;;;4.30;4.00;;;;;;;23.10;63.87;97447.28;4931003;28;20436;-60
2022/05/17 11:52:36;;;;;;;4.10;3.77;;;;;;;23.03;69.21;97454.81;4914423;28;20235;-60